ECLK1: Elk City Lake

Data processed at Sat Dec 15 2018 23:32


All information presented herein is the property of the government of the United States of America and may be revised or deleted at any time without prior notice.
Dissemination of this information without the expressed written consent of the Public Affairs Office, Tulsa District U.S. Army Corps of Engineers is strictly prohibited.
These data are gathered electronically and, as presented, have not undergone any form of quality control. These data are not guaranteed to be valid or correct.
Go to home page.
Go to station list.
Go to home page.

Upstream stations:

Downstream station:
Previous Day
Next Day
Current Day
    
SHEF ID:       ECLK1     Elk City Lake
STATION TYPE:  RESERVOIR
Normal Pool:  Bottom =   764.00, Top =   796.00

               PRECIP ELEVATION   STORAGE    INFLOW   RELEASE  AIR-TEMP  WIND-DIRWIND-SPEED REL-HUMID SOLAR-RAD   VOLTAGE  BAT-LOAD
                   in        ft     ac-ft       cfs       cfs         F       deg       mph         %      W/m2      volt      volt
              Ccp-Rev   Ccp-Rev   Ccp-Rev  Regi-Rev  Regi-Rev   Ccp-Rev   Ccp-Rev   Ccp-Rev   Ccp-Rev   Ccp-Rev   Ccp-Rev   Ccp-Rev
(US/Central)
12/15 00:00      0.00    796.31     38565       192       182     35.74      6.94      5.48     56.53      0.00     13.31     12.93
12/15 01:00      0.00    796.32     38602       212       183     34.75    357.95      4.34     57.92      0.00     13.31     12.94
12/15 02:00      0.00    796.32     38602       212       183     32.99    336.60      2.98     62.45      0.00     13.53     12.99
12/15 03:00      0.00    796.32     38602        93       183     32.76    330.15      3.37     61.99      0.00     13.53     12.94
12/15 04:00      0.00    796.30     38528       193       182     32.41    342.77      2.53     62.10      0.00     13.43     12.94
12/15 05:00      0.00    796.30     38528       202       182     32.43      0.48      3.30     60.41      0.00     13.31     12.96
12/15 06:00      0.00    796.31     38565       212       182     32.54    355.70      3.74     57.00      0.00     13.59     12.97
12/15 07:00      0.00    796.31     38565       242       182     31.69     10.48      2.51     58.95      0.00     13.55     12.93
12/15 08:00      0.00    796.31     38565       272       182     31.33    356.91      3.39     60.00      0.00     13.43     12.93
12/15 09:00      0.00    796.31     38565       182       182     32.88    357.89      3.69     57.70     95.74     13.59     13.02
12/15 10:00      0.00    796.31     38565       272       182     38.79     14.80      4.38     43.37    236.46     13.43     12.93
12/15 11:00      0.00    796.31     38565       242       182     44.29     16.11      7.29     31.85    356.37     13.55     12.95
12/15 12:00      0.00    796.32     38602       212       182     47.97    358.16      5.91     28.37    435.86     13.56     12.93
12/15 13:00      0.00    796.31     38565       175       182     52.81      7.91      4.86     19.29    461.96     13.31     12.92
12/15 14:00      0.00    796.31     38565       139       182     56.35    356.85      4.83     14.40    430.49     13.42     12.90
12/15 15:00      0.00    796.31     38565        34       182     58.77    342.94      3.10     14.06    347.30     13.56     12.93
12/15 16:00      0.00    796.32     38602        49       182     60.10    336.39      2.73     14.26    221.34     13.58     12.89
12/15 17:00      0.00    796.30     38528        64       182     59.34    327.19      1.38     15.81     65.21     13.58     12.80
12/15 18:00      0.00    796.31     38565       182       182     53.53     29.08      0.28     22.26      0.00     13.59     12.90
12/15 19:00      0.00    796.30     38528       182       182     48.16    359.40      1.39     29.29      0.00     13.57     12.67
12/15 20:00      0.00    796.31     38565       161       182     44.78    309.00      1.65     41.59      0.00     13.56     12.92
12/15 21:00      0.00    796.30     38528       257       182     43.07    251.78      0.75     51.85      0.00     13.57     12.93
12/15 22:00      0.00    796.30     38528       235       182     42.40    284.56      1.69     48.61      0.00     13.57     12.91
12/15 23:00      0.00    796.31     38565       353       182     39.92    339.10      3.25     50.16      0.00     13.30     12.90